createdAt,value
2019-01-23T00:00:21.983Z,0.00
2019-01-23T00:01:21.965Z,0.00
2019-01-23T00:02:21.956Z,0.00
2019-01-23T00:03:21.951Z,0.00
2019-01-23T00:04:21.932Z,0.00
2019-01-23T00:05:21.935Z,0.00
2019-01-23T00:06:21.914Z,0.00
2019-01-23T00:07:21.943Z,0.00
2019-01-23T00:08:21.888Z,0.00
2019-01-23T00:09:21.892Z,0.00
2019-01-23T00:10:21.876Z,0.00
2019-01-23T00:11:21.863Z,0.00
2019-01-23T00:12:21.852Z,0.00
2019-01-23T00:13:21.843Z,0.00
2019-01-23T00:14:21.838Z,0.00
2019-01-23T00:15:21.860Z,0.00
2019-01-23T00:16:21.807Z,0.00
2019-01-23T00:17:21.807Z,0.00
2019-01-23T00:18:21.792Z,0.00
2019-01-23T00:19:21.783Z,0.00
2019-01-23T00:20:21.775Z,0.00
2019-01-23T00:21:21.765Z,0.00
2019-01-23T00:22:21.762Z,0.00
2019-01-23T00:23:21.743Z,0.00
2019-01-23T00:24:21.732Z,0.00
2019-01-23T00:25:21.717Z,0.00
2019-01-23T00:26:21.739Z,0.00
2019-01-23T00:27:21.702Z,0.00
2019-01-23T00:28:21.693Z,0.00
2019-01-23T00:29:21.682Z,0.00
2019-01-23T00:30:21.673Z,0.00
2019-01-23T00:31:21.662Z,0.00
2019-01-23T00:32:21.659Z,0.00
2019-01-23T00:33:21.643Z,0.00
2019-01-23T00:34:21.632Z,0.00
2019-01-23T00:35:21.653Z,0.00
2019-01-23T00:36:21.612Z,0.00
2019-01-23T00:37:21.610Z,0.00
2019-01-23T00:38:21.601Z,0.00
2019-01-23T00:39:21.577Z,0.00
2019-01-23T00:40:21.613Z,0.00
2019-01-23T00:41:21.561Z,0.00
2019-01-23T00:42:21.563Z,0.00
2019-01-23T00:43:21.565Z,0.00
2019-01-23T00:44:21.530Z,0.00
2019-01-23T00:45:21.521Z,0.00
2019-01-23T00:46:21.513Z,0.00
2019-01-23T00:47:21.498Z,0.00
2019-01-23T00:48:21.491Z,0.00
2019-01-23T00:49:21.493Z,0.00
2019-01-23T00:50:21.465Z,0.00
2019-01-23T00:51:21.460Z,0.00
2019-01-23T00:52:21.450Z,0.00
2019-01-23T00:53:21.441Z,0.00
2019-01-23T00:54:21.441Z,0.00
2019-01-23T00:55:21.417Z,0.00
2019-01-23T00:56:21.405Z,0.00
2019-01-23T00:57:21.408Z,0.00
2019-01-23T00:58:21.384Z,0.00
2019-01-23T00:59:21.412Z,0.00
2019-01-23T01:00:21.368Z,0.00
2019-01-23T01:01:21.355Z,0.00
2019-01-23T01:02:21.349Z,0.00
2019-01-23T01:03:21.335Z,0.00
2019-01-23T01:04:21.331Z,0.00
2019-01-23T01:05:21.359Z,0.00
2019-01-23T01:06:21.305Z,0.00
2019-01-23T01:07:21.300Z,0.00
2019-01-23T01:08:21.284Z,0.00
2019-01-23T01:09:21.274Z,0.00
2019-01-23T01:10:21.269Z,0.00
2019-01-23T01:11:21.266Z,0.00
2019-01-23T01:12:21.245Z,0.00
2019-01-23T01:13:21.241Z,0.00
2019-01-23T01:14:21.226Z,0.00
2019-01-23T01:15:21.214Z,0.00
2019-01-23T01:16:21.211Z,0.00
2019-01-23T01:17:21.194Z,0.00
2019-01-23T01:18:21.190Z,0.00
2019-01-23T01:19:21.179Z,0.00
2019-01-23T01:20:21.165Z,0.00
2019-01-23T01:21:21.168Z,0.00
2019-01-23T01:22:21.151Z,0.00
2019-01-23T01:23:21.139Z,0.00
2019-01-23T01:24:21.130Z,0.00
2019-01-23T01:25:21.114Z,0.00
2019-01-23T01:26:21.112Z,0.00
2019-01-23T01:27:21.110Z,0.00
2019-01-23T01:28:21.121Z,0.00
2019-01-23T01:29:21.079Z,0.00
2019-01-23T01:30:21.063Z,0.00
2019-01-23T01:31:21.054Z,0.00
2019-01-23T01:32:21.045Z,0.00
2019-01-23T01:33:21.056Z,0.00
2019-01-23T01:34:21.025Z,0.00
2019-01-23T01:35:21.014Z,0.00
2019-01-23T01:36:21.004Z,0.00
2019-01-23T01:37:21.001Z,0.00
2019-01-23T01:38:20.989Z,0.00
2019-01-23T01:39:20.978Z,0.00
2019-01-23T01:40:20.980Z,0.00
2019-01-23T01:41:20.952Z,0.00
2019-01-23T01:42:20.952Z,0.00
2019-01-23T01:43:20.933Z,0.00
2019-01-23T01:44:20.928Z,0.00
2019-01-23T01:45:20.927Z,0.00
2019-01-23T01:46:20.903Z,0.00
2019-01-23T01:47:20.899Z,0.00
2019-01-23T01:48:20.883Z,0.00
2019-01-23T01:49:20.875Z,0.00
2019-01-23T01:50:20.904Z,0.00
2019-01-23T01:51:20.856Z,0.00
2019-01-23T01:52:20.841Z,0.00
2019-01-23T01:53:20.836Z,0.00
2019-01-23T01:54:20.823Z,0.00
2019-01-23T01:55:20.813Z,0.00
2019-01-23T01:56:20.813Z,0.00
2019-01-23T01:57:20.792Z,0.00
2019-01-23T01:58:20.780Z,0.00
2019-01-23T01:59:20.777Z,0.00
2019-01-23T02:00:20.763Z,0.00
2019-01-23T02:01:20.881Z,0.00
2019-01-23T02:02:20.740Z,0.00
2019-01-23T02:03:20.731Z,0.00
2019-01-23T02:04:20.727Z,0.00
2019-01-23T02:05:20.717Z,0.00
2019-01-23T02:06:20.705Z,0.00
2019-01-23T02:07:20.698Z,0.00
2019-01-23T02:08:20.685Z,0.00
2019-01-23T02:09:20.681Z,0.00
2019-01-23T02:10:20.662Z,0.00
2019-01-23T02:11:20.649Z,0.00
2019-01-23T02:12:20.644Z,0.00
2019-01-23T02:13:20.633Z,0.00
2019-01-23T02:14:20.621Z,0.00
2019-01-23T02:15:20.649Z,0.00
2019-01-23T02:16:20.601Z,0.00
2019-01-23T02:17:20.596Z,0.00
2019-01-23T02:18:20.585Z,0.00
2019-01-23T02:19:20.575Z,0.00
2019-01-23T02:20:20.565Z,0.00
2019-01-23T02:21:20.562Z,0.00
2019-01-23T02:22:20.545Z,0.00
2019-01-23T02:23:20.534Z,0.00
2019-01-23T02:24:20.536Z,0.00
2019-01-23T02:25:20.517Z,0.00
2019-01-23T02:26:20.543Z,0.00
2019-01-23T02:27:20.489Z,0.00
2019-01-23T02:28:20.485Z,0.00
2019-01-23T02:29:20.468Z,0.00
2019-01-23T02:30:20.467Z,0.00
2019-01-23T02:31:20.454Z,0.00
2019-01-23T02:32:20.452Z,0.00
2019-01-23T02:33:20.432Z,0.00
2019-01-23T02:34:20.433Z,0.00
2019-01-23T02:35:20.412Z,0.00
2019-01-23T02:36:20.397Z,0.00
2019-01-23T02:37:20.390Z,0.00
2019-01-23T02:38:20.397Z,0.00
2019-01-23T02:39:20.368Z,0.00
2019-01-23T02:40:20.387Z,0.00
2019-01-23T02:41:20.348Z,0.00
2019-01-23T02:42:20.344Z,0.00
2019-01-23T02:43:20.335Z,0.00
2019-01-23T02:44:20.326Z,0.00
2019-01-23T02:45:20.322Z,0.00
2019-01-23T02:46:20.298Z,0.00
2019-01-23T02:47:20.295Z,0.00
2019-01-23T02:48:20.282Z,0.00
2019-01-23T02:49:20.267Z,0.00
2019-01-23T02:50:20.309Z,0.00
2019-01-23T02:51:20.252Z,0.00
2019-01-23T02:52:20.237Z,0.00
2019-01-23T02:53:20.233Z,0.00
2019-01-23T02:54:20.224Z,0.00
2019-01-23T02:55:20.218Z,0.00
2019-01-23T02:56:20.218Z,0.00
2019-01-23T02:57:20.188Z,0.00
2019-01-23T02:58:20.179Z,0.00
2019-01-23T02:59:20.165Z,0.00
2019-01-23T03:00:20.158Z,0.00
2019-01-23T03:01:20.190Z,0.00
2019-01-23T03:02:20.139Z,0.00
2019-01-23T03:03:20.132Z,0.00
2019-01-23T03:04:20.117Z,0.00
2019-01-23T03:05:20.106Z,0.00
2019-01-23T03:06:20.100Z,0.00
2019-01-23T03:07:20.104Z,0.00
2019-01-23T03:08:20.080Z,0.00
2019-01-23T03:09:20.070Z,0.00
2019-01-23T03:10:20.061Z,0.00
2019-01-23T03:11:20.052Z,0.00
2019-01-23T03:12:20.047Z,0.00
2019-01-23T03:13:20.031Z,0.00
2019-01-23T03:14:20.019Z,0.00
2019-01-23T03:15:20.006Z,0.00
2019-01-23T03:16:19.994Z,0.00
2019-01-23T03:17:20.007Z,0.00
2019-01-23T03:18:19.974Z,0.00
2019-01-23T03:19:19.966Z,0.00
2019-01-23T03:20:19.959Z,0.00
2019-01-23T03:21:19.946Z,0.00
2019-01-23T03:22:19.933Z,0.00
2019-01-23T03:23:19.935Z,0.00
2019-01-23T03:24:19.918Z,0.00
2019-01-23T03:25:19.914Z,0.00
2019-01-23T03:26:19.894Z,0.00
2019-01-23T03:27:19.887Z,0.00
2019-01-23T03:28:19.881Z,0.00
2019-01-23T03:29:24.619Z,0.00
2019-01-23T03:30:19.865Z,0.00
2019-01-23T03:31:19.848Z,0.00
2019-01-23T03:32:19.848Z,0.00
2019-01-23T03:33:19.848Z,0.00
2019-01-23T03:34:19.852Z,0.00
2019-01-23T03:35:19.808Z,0.00
2019-01-23T03:36:19.796Z,0.00
2019-01-23T03:37:19.794Z,0.00
2019-01-23T03:38:19.773Z,0.00
2019-01-23T03:39:19.764Z,0.00
2019-01-23T03:40:19.761Z,0.00
2019-01-23T03:41:19.747Z,0.00
2019-01-23T03:42:19.737Z,0.00
2019-01-23T03:43:19.728Z,0.00
2019-01-23T03:44:19.722Z,0.00
2019-01-23T03:45:19.722Z,0.00
2019-01-23T03:46:19.692Z,0.00
2019-01-23T03:47:19.683Z,0.00
2019-01-23T03:48:26.476Z,0.00
2019-01-23T03:49:19.674Z,0.00
2019-01-23T03:50:19.654Z,0.00
2019-01-23T03:51:19.653Z,0.00
2019-01-23T03:52:19.639Z,0.00
2019-01-23T03:53:19.623Z,0.00
2019-01-23T03:54:19.614Z,0.00
2019-01-23T03:55:19.615Z,0.00
2019-01-23T03:56:19.606Z,0.00
2019-01-23T03:57:19.583Z,0.00
2019-01-23T03:58:19.580Z,0.00
2019-01-23T03:59:19.568Z,0.00
2019-01-23T04:00:19.592Z,0.00
2019-01-23T04:01:19.545Z,0.00
2019-01-23T04:02:19.537Z,0.00
2019-01-23T04:03:19.527Z,0.00
2019-01-23T04:04:19.517Z,0.00
2019-01-23T04:05:19.521Z,0.00
2019-01-23T04:06:19.506Z,0.00
2019-01-23T04:07:19.483Z,0.00
2019-01-23T04:08:19.478Z,0.00
2019-01-23T04:09:19.462Z,0.00
2019-01-23T04:10:19.451Z,0.00
2019-01-23T04:11:19.478Z,0.00
2019-01-23T04:12:19.432Z,0.00
2019-01-23T04:13:19.428Z,0.00
2019-01-23T04:14:19.413Z,0.00
2019-01-23T04:15:19.403Z,0.00
2019-01-23T04:16:19.397Z,0.00
2019-01-23T04:17:19.406Z,0.00
2019-01-23T04:18:19.377Z,0.00
2019-01-23T04:19:19.365Z,0.00
2019-01-23T04:20:19.352Z,0.00
2019-01-23T04:21:19.349Z,0.00
2019-01-23T04:22:19.341Z,0.00
2019-01-23T04:23:19.325Z,0.00
2019-01-23T04:24:19.317Z,0.00
2019-01-23T04:25:19.306Z,0.00
2019-01-23T04:26:19.297Z,0.00
2019-01-23T04:27:19.305Z,0.00
2019-01-23T04:28:19.276Z,0.00
2019-01-23T04:29:19.263Z,0.00
2019-01-23T04:30:19.284Z,0.00
2019-01-23T04:31:19.242Z,0.00
2019-01-23T04:32:19.268Z,0.00
2019-01-23T04:33:19.230Z,0.00
2019-01-23T04:34:19.214Z,0.00
2019-01-23T04:35:19.211Z,0.00
2019-01-23T04:36:19.194Z,0.00
2019-01-23T04:37:19.183Z,0.00
2019-01-23T04:38:19.191Z,0.00
2019-01-23T04:39:19.167Z,0.00
2019-01-23T04:40:19.158Z,0.00
2019-01-23T04:41:19.147Z,0.00
2019-01-23T04:42:19.138Z,0.00
2019-01-23T04:43:19.158Z,0.00
2019-01-23T04:44:19.115Z,0.00
2019-01-23T04:45:19.109Z,0.00
2019-01-23T04:46:19.098Z,0.00
2019-01-23T04:47:19.088Z,0.00
2019-01-23T04:48:19.075Z,0.00
2019-01-23T04:49:19.075Z,0.00
2019-01-23T04:50:19.061Z,0.00
2019-01-23T04:51:19.049Z,0.00
2019-01-23T04:52:19.033Z,0.00
2019-01-23T04:53:19.028Z,0.00
2019-01-23T04:54:19.027Z,0.00
2019-01-23T04:55:19.006Z,0.00
2019-01-23T04:56:19.001Z,0.00
2019-01-23T04:57:18.989Z,0.00
2019-01-23T04:58:18.973Z,0.00
2019-01-23T04:59:18.980Z,0.00
2019-01-23T05:00:18.967Z,0.00
2019-01-23T05:01:18.954Z,0.00
2019-01-23T05:02:18.934Z,0.00
2019-01-23T05:03:18.923Z,0.00
2019-01-23T05:04:18.916Z,0.00
2019-01-23T05:05:18.911Z,0.00
2019-01-23T05:06:18.928Z,0.00
2019-01-23T05:07:18.884Z,0.00
2019-01-23T05:08:18.877Z,0.00
2019-01-23T05:09:18.870Z,0.00
2019-01-23T05:10:18.854Z,0.00
2019-01-23T05:11:18.844Z,0.00
2019-01-23T05:12:18.846Z,0.00
2019-01-23T05:13:18.829Z,0.00
2019-01-23T05:14:18.818Z,0.00
2019-01-23T05:15:18.807Z,0.00
2019-01-23T05:16:18.794Z,0.00
2019-01-23T05:17:18.796Z,0.00
2019-01-23T05:18:18.779Z,0.00
2019-01-23T05:19:18.770Z,0.00
2019-01-23T05:20:18.762Z,0.00
2019-01-23T05:21:18.748Z,0.00
2019-01-23T05:22:18.771Z,0.00
2019-01-23T05:23:18.729Z,0.00
2019-01-23T05:24:18.715Z,0.00
2019-01-23T05:25:18.709Z,0.00
2019-01-23T05:26:18.699Z,0.00
2019-01-23T05:27:18.690Z,0.00
2019-01-23T05:28:18.711Z,0.00
2019-01-23T05:29:18.671Z,0.00
2019-01-23T05:30:18.659Z,0.00
2019-01-23T05:31:18.649Z,0.00
2019-01-23T05:32:18.658Z,0.00
2019-01-23T05:33:18.627Z,0.00
2019-01-23T05:34:18.624Z,0.00
2019-01-23T05:35:18.609Z,0.00
2019-01-23T05:36:18.606Z,0.00
2019-01-23T05:37:18.589Z,0.00
2019-01-23T05:38:18.575Z,0.00
2019-01-23T05:39:18.571Z,0.00
2019-01-23T05:40:18.567Z,0.00
2019-01-23T05:41:18.556Z,0.00
2019-01-23T05:42:18.538Z,0.00
2019-01-23T05:43:18.529Z,0.00
2019-01-23T05:44:18.536Z,0.00
2019-01-23T05:45:18.514Z,0.00
2019-01-23T05:46:18.506Z,0.00
2019-01-23T05:47:18.484Z,0.00
2019-01-23T05:48:18.480Z,0.00
2019-01-23T05:49:18.470Z,0.00
2019-01-23T05:50:18.468Z,0.00
2019-01-23T05:51:18.450Z,0.00
2019-01-23T05:52:18.433Z,0.00
2019-01-23T05:53:18.439Z,0.00
2019-01-23T05:54:18.421Z,0.00
2019-01-23T05:55:18.415Z,0.00
2019-01-23T05:56:18.462Z,0.00
2019-01-23T05:57:18.388Z,0.00
2019-01-23T05:58:18.387Z,0.00
2019-01-23T05:59:18.374Z,0.00
2019-01-23T06:00:18.394Z,0.00
2019-01-23T06:01:18.350Z,0.00
2019-01-23T06:02:18.345Z,0.00
2019-01-23T06:03:18.330Z,0.00
2019-01-23T06:04:18.321Z,0.00
2019-01-23T06:05:18.308Z,0.00
2019-01-23T06:06:18.303Z,0.00
2019-01-23T06:07:18.285Z,0.00
2019-01-23T06:08:18.280Z,0.00
2019-01-23T06:09:18.264Z,0.00
2019-01-23T06:10:18.260Z,0.00
2019-01-23T06:11:18.274Z,0.00
2019-01-23T06:12:18.235Z,0.00
2019-01-23T06:13:18.225Z,0.00
2019-01-23T06:14:18.220Z,0.00
2019-01-23T06:15:18.208Z,0.00
2019-01-23T06:16:18.200Z,0.00
2019-01-23T06:17:18.201Z,0.00
2019-01-23T06:18:18.180Z,0.00
2019-01-23T06:19:18.170Z,0.00
2019-01-23T06:20:18.156Z,0.00
2019-01-23T06:21:18.146Z,0.00
2019-01-23T06:22:18.154Z,0.00
2019-01-23T06:23:18.138Z,0.00
2019-01-23T06:24:18.121Z,0.00
2019-01-23T06:25:18.114Z,0.00
2019-01-23T06:26:18.100Z,0.00
2019-01-23T06:27:18.090Z,0.00
2019-01-23T06:28:18.088Z,4.00
2019-01-23T06:29:18.067Z,4.00
2019-01-23T06:30:18.058Z,0.00
2019-01-23T06:31:18.047Z,0.00
2019-01-23T06:32:18.037Z,4.00
2019-01-23T06:33:18.033Z,0.00
2019-01-23T06:34:18.024Z,4.00
2019-01-23T06:35:18.007Z,4.00
2019-01-23T06:36:18.002Z,4.00
2019-01-23T06:37:17.985Z,4.00
2019-01-23T06:38:17.974Z,4.00
2019-01-23T06:39:18.005Z,8.00
2019-01-23T06:40:17.960Z,8.00
2019-01-23T06:41:17.946Z,8.00
2019-01-23T06:42:17.947Z,8.00
2019-01-23T06:43:17.926Z,12.00
2019-01-23T06:44:17.924Z,12.00
2019-01-23T06:45:17.919Z,12.00
2019-01-23T06:46:17.895Z,12.00
2019-01-23T06:47:17.885Z,20.00
2019-01-23T06:48:17.881Z,20.00
2019-01-23T06:49:17.865Z,20.00
2019-01-23T06:50:17.864Z,24.00
2019-01-23T06:51:17.855Z,28.00
2019-01-23T06:52:17.836Z,32.00
2019-01-23T06:53:17.830Z,36.00
2019-01-23T06:54:17.822Z,40.00
2019-01-23T06:55:17.810Z,44.00
2019-01-23T06:56:17.808Z,52.00
2019-01-23T06:57:17.785Z,52.00
2019-01-23T06:58:17.781Z,52.00
2019-01-23T06:59:17.770Z,52.00
2019-01-23T07:00:17.767Z,60.00
2019-01-23T07:01:17.784Z,64.00
2019-01-23T07:02:17.735Z,68.00
2019-01-23T07:03:17.730Z,72.00
2019-01-23T07:04:17.723Z,84.00
2019-01-23T07:05:17.710Z,88.00
2019-01-23T07:06:17.695Z,88.00
2019-01-23T07:07:17.692Z,92.00
2019-01-23T07:08:17.689Z,100.00
2019-01-23T07:09:17.665Z,104.00
2019-01-23T07:10:17.661Z,108.00
2019-01-23T07:11:17.647Z,116.00
2019-01-23T07:12:17.646Z,128.00
2019-01-23T07:13:17.629Z,128.00
2019-01-23T07:14:17.615Z,132.00
2019-01-23T07:15:17.606Z,140.00
2019-01-23T07:16:17.616Z,152.00
2019-01-23T07:17:17.585Z,160.00
2019-01-23T07:18:17.587Z,164.00
2019-01-23T07:19:17.571Z,172.00
2019-01-23T07:20:17.556Z,176.00
2019-01-23T07:21:17.545Z,180.00
2019-01-23T07:22:17.581Z,200.00
2019-01-23T07:23:17.525Z,220.00
2019-01-23T07:24:17.520Z,212.00
2019-01-23T07:25:17.504Z,220.00
2019-01-23T07:26:17.501Z,232.00
2019-01-23T07:27:17.485Z,280.00
2019-01-23T07:28:17.483Z,260.00
2019-01-23T07:29:17.466Z,272.00
2019-01-23T07:30:23.986Z,276.00
2019-01-23T07:31:18.448Z,316.00
2019-01-23T07:32:17.435Z,296.00
2019-01-23T07:33:17.444Z,336.00
2019-01-23T07:34:17.422Z,328.00
2019-01-23T07:35:17.409Z,352.00
2019-01-23T07:36:17.400Z,456.00
2019-01-23T07:37:17.391Z,432.00
2019-01-23T07:38:17.391Z,380.00
2019-01-23T07:39:17.365Z,372.00
2019-01-23T07:40:17.359Z,392.00
2019-01-23T07:41:17.350Z,484.00
2019-01-23T07:42:17.335Z,488.00
2019-01-23T07:43:17.364Z,428.00
2019-01-23T07:44:17.322Z,416.00
2019-01-23T07:45:17.310Z,480.00
2019-01-23T07:46:17.296Z,548.00
2019-01-23T07:47:17.289Z,556.00
2019-01-23T07:48:17.277Z,536.00
2019-01-23T07:49:17.280Z,480.00
2019-01-23T07:50:17.261Z,456.00
2019-01-23T07:51:17.245Z,528.00
2019-01-23T07:52:17.242Z,788.00
2019-01-23T07:53:17.232Z,700.00
2019-01-23T07:54:17.237Z,672.00
2019-01-23T07:55:17.210Z,584.00
2019-01-23T07:56:17.201Z,580.00
2019-01-23T07:57:17.193Z,564.00
2019-01-23T07:58:17.181Z,660.00
2019-01-23T07:59:17.186Z,688.00
2019-01-23T08:00:17.153Z,612.00
2019-01-23T08:01:17.150Z,716.00
2019-01-23T08:02:17.135Z,1036.00
2019-01-23T08:03:17.130Z,1052.00
2019-01-23T08:04:17.118Z,888.00
2019-01-23T08:05:19.531Z,1020.00
2019-01-23T08:06:17.113Z,948.00
2019-01-23T08:07:17.089Z,936.00
2019-01-23T08:08:17.074Z,968.00
2019-01-23T08:09:17.084Z,888.00
2019-01-23T08:10:17.054Z,1100.00
2019-01-23T08:11:17.049Z,928.00
2019-01-23T08:12:17.033Z,1144.00
2019-01-23T08:13:17.077Z,992.00
2019-01-23T08:14:17.017Z,1112.00
2019-01-23T08:15:17.019Z,1192.00
2019-01-23T08:16:16.994Z,932.00
2019-01-23T08:17:16.994Z,880.00
2019-01-23T08:18:16.978Z,1132.00
2019-01-23T08:19:16.961Z,1272.00
2019-01-23T08:20:16.977Z,1516.00
2019-01-23T08:21:16.943Z,1128.00
2019-01-23T08:22:16.937Z,1508.00
2019-01-23T08:23:16.920Z,1748.00
2019-01-23T08:24:16.917Z,1496.00
2019-01-23T08:25:16.908Z,1300.00
2019-01-23T08:26:16.891Z,2168.00
2019-01-23T08:27:16.884Z,2092.00
2019-01-23T08:28:16.883Z,1524.00
2019-01-23T08:29:16.862Z,1880.00
2019-01-23T08:30:16.856Z,2456.00
2019-01-23T08:31:16.852Z,2084.00
2019-01-23T08:32:16.834Z,1904.00
2019-01-23T08:33:16.824Z,1996.00
2019-01-23T08:34:16.818Z,1656.00
2019-01-23T08:35:16.802Z,2144.00
2019-01-23T08:36:16.831Z,2156.00
2019-01-23T08:37:16.784Z,1692.00
2019-01-23T08:38:16.768Z,1844.00
2019-01-23T08:39:16.760Z,1892.00
2019-01-23T08:40:16.750Z,1772.00
2019-01-23T08:41:16.743Z,1448.00
2019-01-23T08:42:16.760Z,1396.00
2019-01-23T08:43:16.724Z,1792.00
2019-01-23T08:44:16.706Z,1676.00
2019-01-23T08:45:16.710Z,2368.00
2019-01-23T08:46:16.692Z,1912.00
2019-01-23T08:47:16.681Z,2268.00
2019-01-23T08:48:16.686Z,1924.00
2019-01-23T08:49:16.655Z,1796.00
2019-01-23T08:50:16.655Z,2016.00
2019-01-23T08:51:16.636Z,2624.00
2019-01-23T08:52:16.625Z,1660.00
2019-01-23T08:53:16.618Z,1380.00
2019-01-23T08:54:16.645Z,1992.00
2019-01-23T08:55:16.599Z,2060.00
2019-01-23T08:56:16.584Z,2348.00
2019-01-23T08:57:16.574Z,2408.00
2019-01-23T08:58:16.569Z,1524.00
2019-01-23T08:59:16.558Z,1472.00
2019-01-23T09:00:16.565Z,2184.00
2019-01-23T09:01:16.544Z,2004.00
2019-01-23T09:02:16.522Z,1668.00
2019-01-23T09:03:16.513Z,1740.00
2019-01-23T09:04:16.515Z,1752.00
2019-01-23T09:05:16.493Z,2408.00
2019-01-23T09:06:16.512Z,2544.00
2019-01-23T09:07:16.483Z,1604.00
2019-01-23T09:08:16.463Z,2292.00
2019-01-23T09:09:16.451Z,2332.00
2019-01-23T09:10:16.445Z,2624.00
2019-01-23T09:11:16.431Z,2268.00
2019-01-23T09:12:16.438Z,1936.00
2019-01-23T09:13:16.410Z,2296.00
2019-01-23T09:14:16.399Z,3664.00
2019-01-23T09:15:16.391Z,3400.00
2019-01-23T09:16:16.380Z,2860.00
2019-01-23T09:17:16.383Z,2660.00
2019-01-23T09:18:16.374Z,3420.00
2019-01-23T09:19:16.348Z,2676.00
2019-01-23T09:20:16.339Z,2632.00
2019-01-23T09:21:16.333Z,1880.00
2019-01-23T09:22:16.324Z,2672.00
2019-01-23T09:23:16.329Z,2808.00
2019-01-23T09:24:16.312Z,3160.00
2019-01-23T09:25:16.289Z,3160.00
2019-01-23T09:26:16.287Z,2704.00
2019-01-23T09:27:16.280Z,2840.00
2019-01-23T09:28:16.262Z,2396.00
2019-01-23T09:29:16.257Z,2280.00
2019-01-23T09:30:16.248Z,2224.00
2019-01-23T09:31:16.232Z,1928.00
2019-01-23T09:32:16.229Z,2464.00
2019-01-23T09:33:16.217Z,1900.00
2019-01-23T09:34:16.203Z,1936.00
2019-01-23T09:35:16.187Z,1800.00
2019-01-23T09:36:16.182Z,1668.00
2019-01-23T09:37:16.167Z,1700.00
2019-01-23T09:38:16.170Z,2132.00
2019-01-23T09:39:16.188Z,2244.00
2019-01-23T09:40:16.145Z,2796.00
2019-01-23T09:41:17.246Z,4192.00
2019-01-23T09:42:16.117Z,4840.00
2019-01-23T09:43:16.111Z,4408.00
2019-01-23T09:44:16.098Z,4232.00
2019-01-23T09:45:16.097Z,4072.00
2019-01-23T09:46:16.077Z,4184.00
2019-01-23T09:47:16.072Z,4776.00
2019-01-23T09:48:16.059Z,5832.00
2019-01-23T09:49:16.051Z,4720.00
2019-01-23T09:50:16.044Z,4412.00
2019-01-23T09:51:16.025Z,5472.00
2019-01-23T09:52:16.034Z,6300.00
2019-01-23T09:53:16.008Z,5060.00
2019-01-23T09:54:15.994Z,4596.00
2019-01-23T09:55:15.996Z,3196.00
2019-01-23T09:56:15.978Z,2564.00
2019-01-23T09:57:15.963Z,2668.00
2019-01-23T09:58:15.964Z,5344.00
2019-01-23T09:59:15.943Z,6252.00
2019-01-23T10:00:15.944Z,6628.00
2019-01-23T10:01:15.926Z,5944.00
2019-01-23T10:02:15.917Z,5992.00
2019-01-23T10:03:15.916Z,5012.00
2019-01-23T10:04:15.903Z,5488.00
2019-01-23T10:05:15.886Z,6528.00
2019-01-23T10:06:15.883Z,6976.00
2019-01-23T10:07:15.860Z,7044.00
2019-01-23T10:08:15.851Z,7324.00
2019-01-23T10:09:15.839Z,7288.00
2019-01-23T10:10:15.827Z,7148.00
2019-01-23T10:11:15.834Z,7140.00
2019-01-23T10:12:15.814Z,6596.00
2019-01-23T10:13:15.805Z,6440.00
2019-01-23T10:14:15.793Z,6208.00
2019-01-23T10:15:15.781Z,5736.00
2019-01-23T10:16:15.781Z,4352.00
2019-01-23T10:17:15.762Z,3716.00
2019-01-23T10:18:15.786Z,3216.00
2019-01-23T10:19:15.741Z,2976.00
2019-01-23T10:20:15.731Z,3592.00
2019-01-23T10:21:15.722Z,3348.00
2019-01-23T10:22:15.712Z,3864.00
2019-01-23T10:23:15.695Z,5288.00
2019-01-23T10:24:15.699Z,4612.00
2019-01-23T10:25:16.884Z,6996.00
2019-01-23T10:26:15.670Z,9312.00
2019-01-23T10:27:15.660Z,9036.00
2019-01-23T10:28:15.649Z,6692.00
2019-01-23T10:29:15.652Z,6936.00
2019-01-23T10:30:15.626Z,7684.00
2019-01-23T10:31:15.613Z,7620.00
2019-01-23T10:32:15.603Z,7732.00
2019-01-23T10:33:15.601Z,7668.00
2019-01-23T10:34:15.590Z,7000.00
2019-01-23T10:35:15.591Z,7960.00
2019-01-23T10:36:15.567Z,8032.00
2019-01-23T10:37:19.521Z,6456.00
2019-01-23T10:38:15.546Z,5996.00
2019-01-23T10:39:15.531Z,5120.00
2019-01-23T10:40:15.531Z,4736.00
2019-01-23T10:41:15.509Z,4136.00
2019-01-23T10:42:15.517Z,3748.00
2019-01-23T10:43:15.493Z,4236.00
2019-01-23T10:44:15.485Z,3588.00
2019-01-23T10:45:15.478Z,3604.00
2019-01-23T10:46:15.460Z,3248.00
2019-01-23T10:47:15.446Z,3384.00
2019-01-23T10:48:15.490Z,3432.00
2019-01-23T10:49:15.430Z,2996.00
2019-01-23T10:50:15.424Z,3136.00
2019-01-23T10:51:15.406Z,3464.00
2019-01-23T10:52:15.398Z,3444.00
2019-01-23T10:53:15.385Z,3872.00
2019-01-23T10:54:15.381Z,3656.00
2019-01-23T10:55:15.376Z,3792.00
2019-01-23T10:56:15.362Z,4036.00
2019-01-23T10:57:15.344Z,4292.00
2019-01-23T10:58:15.339Z,4044.00
2019-01-23T10:59:15.326Z,4352.00
2019-01-23T11:00:15.328Z,3868.00
2019-01-23T11:01:15.304Z,3992.00
2019-01-23T11:02:15.300Z,4088.00
2019-01-23T11:03:15.323Z,3580.00
2019-01-23T11:04:15.276Z,3388.00
2019-01-23T11:05:15.269Z,3264.00
2019-01-23T11:06:15.258Z,3172.00
2019-01-23T11:07:15.247Z,2988.00
2019-01-23T11:08:15.233Z,3228.00
2019-01-23T11:09:15.290Z,3480.00
2019-01-23T11:10:15.229Z,3800.00
2019-01-23T11:11:15.203Z,4052.00
2019-01-23T11:12:15.206Z,3672.00
2019-01-23T11:13:15.181Z,3876.00
2019-01-23T11:14:15.179Z,4120.00
2019-01-23T11:15:15.178Z,4628.00
2019-01-23T11:16:15.163Z,4252.00
2019-01-23T11:17:15.157Z,4420.00
2019-01-23T11:18:15.134Z,5028.00
2019-01-23T11:19:15.131Z,4348.00
2019-01-23T11:20:15.120Z,4428.00
2019-01-23T11:21:15.105Z,5428.00
2019-01-23T11:22:15.102Z,5020.00
2019-01-23T11:23:15.088Z,5100.00
2019-01-23T11:24:15.077Z,6264.00
2019-01-23T11:25:15.108Z,5084.00
2019-01-23T11:26:15.052Z,4808.00
2019-01-23T11:27:15.047Z,5240.00
2019-01-23T11:28:15.035Z,5044.00
2019-01-23T11:29:15.025Z,4576.00
2019-01-23T11:30:15.016Z,4752.00
2019-01-23T11:31:20.313Z,7184.00
2019-01-23T11:32:15.990Z,7256.00
2019-01-23T11:33:14.983Z,7020.00
2019-01-23T11:34:14.983Z,7936.00
2019-01-23T11:35:14.971Z,8372.00
2019-01-23T11:36:14.955Z,7920.00
2019-01-23T11:37:14.944Z,7104.00
2019-01-23T11:38:14.926Z,6300.00
2019-01-23T11:39:14.932Z,5928.00
2019-01-23T11:40:14.908Z,5400.00
2019-01-23T11:41:14.899Z,5900.00
2019-01-23T11:42:14.897Z,5560.00
2019-01-23T11:43:14.892Z,5832.00
2019-01-23T11:44:14.864Z,4888.00
2019-01-23T11:45:14.874Z,4756.00
2019-01-23T11:46:14.843Z,4360.00
2019-01-23T11:47:14.846Z,4736.00
2019-01-23T11:48:14.865Z,4768.00
2019-01-23T11:49:14.827Z,4600.00
2019-01-23T11:50:21.155Z,4768.00
2019-01-23T11:51:15.789Z,5104.00
2019-01-23T11:52:14.788Z,4408.00
2019-01-23T11:53:14.782Z,4872.00
2019-01-23T11:54:14.758Z,5152.00
2019-01-23T11:55:14.754Z,5544.00
2019-01-23T11:56:14.743Z,5456.00
2019-01-23T11:57:14.728Z,4988.00
2019-01-23T11:58:14.729Z,4296.00
2019-01-23T11:59:14.713Z,4140.00
2019-01-23T12:00:14.703Z,3980.00
2019-01-23T12:01:14.715Z,3568.00
2019-01-23T12:02:14.684Z,3672.00
2019-01-23T12:03:20.702Z,3500.00
2019-01-23T12:04:15.657Z,4032.00
2019-01-23T12:05:14.679Z,4612.00
2019-01-23T12:06:14.634Z,4632.00
2019-01-23T12:07:14.630Z,4472.00
2019-01-23T12:08:14.612Z,4400.00
2019-01-23T12:09:14.620Z,3716.00
2019-01-23T12:10:14.596Z,4324.00
2019-01-23T12:11:14.736Z,4244.00
2019-01-23T12:12:14.581Z,3556.00
2019-01-23T12:13:14.564Z,3100.00
2019-01-23T12:14:15.469Z,3008.00
2019-01-23T12:15:14.546Z,2780.00
2019-01-23T12:16:14.539Z,2984.00
2019-01-23T12:17:14.535Z,2672.00
2019-01-23T12:18:14.566Z,2552.00
2019-01-23T12:19:14.504Z,2384.00
2019-01-23T12:20:14.518Z,2664.00
2019-01-23T12:21:14.486Z,3056.00
2019-01-23T12:22:14.470Z,3352.00
2019-01-23T12:23:14.464Z,3828.00
2019-01-23T12:24:14.995Z,4232.00
2019-01-23T12:25:14.452Z,4656.00
2019-01-23T12:26:14.481Z,4476.00
2019-01-23T12:27:14.432Z,4648.00
2019-01-23T12:28:14.413Z,4844.00
2019-01-23T12:29:14.408Z,4772.00
2019-01-23T12:30:14.393Z,4532.00
2019-01-23T12:31:14.406Z,4556.00
2019-01-23T12:32:14.376Z,4744.00
2019-01-23T12:33:14.357Z,5524.00
2019-01-23T12:34:14.347Z,5240.00
2019-01-23T12:35:14.336Z,4268.00
2019-01-23T12:36:14.327Z,4092.00
2019-01-23T12:37:14.324Z,4316.00
2019-01-23T12:38:14.312Z,4664.00
2019-01-23T12:39:14.294Z,4772.00
2019-01-23T12:40:14.291Z,4760.00
2019-01-23T12:41:14.313Z,6144.00
2019-01-23T12:42:14.276Z,6620.00
2019-01-23T12:43:14.260Z,6244.00
2019-01-23T12:44:14.245Z,6400.00
2019-01-23T12:45:14.237Z,6604.00